createdAt,value
2023-04-18T00:01:00.031Z,20.90
2023-04-18T00:03:29.994Z,20.20
2023-04-18T00:05:59.434Z,20.70
2023-04-18T00:08:28.457Z,19.70
2023-04-18T00:10:56.528Z,19.70
2023-04-18T00:13:25.119Z,20.00
2023-04-18T00:15:54.313Z,21.40
2023-04-18T00:18:22.290Z,20.80
2023-04-18T00:20:50.353Z,22.50
2023-04-18T00:23:18.727Z,20.80
2023-04-18T00:25:46.590Z,21.90
2023-04-18T00:28:14.502Z,23.10
2023-04-18T00:30:42.501Z,22.40
2023-04-18T00:33:10.455Z,22.50
2023-04-18T00:35:38.569Z,22.00
2023-04-18T00:38:06.477Z,22.50
2023-04-18T00:40:34.559Z,22.60
2023-04-18T00:43:02.766Z,23.20
2023-04-18T00:45:30.716Z,23.40
2023-04-18T00:47:58.707Z,22.60
2023-04-18T00:50:27.068Z,22.90
2023-04-18T00:52:55.313Z,22.80
2023-04-18T00:55:24.443Z,22.10
2023-04-18T00:57:52.562Z,21.80
2023-04-18T01:00:20.482Z,21.80
2023-04-18T01:02:53.239Z,22.00
2023-04-18T01:05:23.753Z,22.10
2023-04-18T01:07:52.157Z,23.10
2023-04-18T01:10:20.237Z,22.60
2023-04-18T01:12:50.836Z,22.80
2023-04-18T01:15:18.765Z,22.50
2023-04-18T01:17:47.350Z,23.80
2023-04-18T01:20:16.904Z,23.30
2023-04-18T01:22:44.900Z,22.80
2023-04-18T01:25:13.123Z,23.50
2023-04-18T01:27:41.045Z,23.00
2023-04-18T01:30:09.685Z,22.90
2023-04-18T01:32:37.708Z,23.90
2023-04-18T01:35:06.326Z,24.10
2023-04-18T01:37:35.982Z,24.30
2023-04-18T01:40:04.749Z,24.90
2023-04-18T01:42:32.722Z,25.60
2023-04-18T01:45:00.920Z,25.00
2023-04-18T01:47:28.868Z,24.50
2023-04-18T01:49:56.889Z,24.60
2023-04-18T01:52:24.926Z,24.50
2023-04-18T01:54:52.882Z,25.30
2023-04-18T01:57:20.883Z,26.50
2023-04-18T01:59:50.367Z,26.00
2023-04-18T02:02:19.714Z,26.30
2023-04-18T02:04:47.798Z,25.60
2023-04-18T02:07:15.977Z,26.50
2023-04-18T02:09:43.880Z,25.80
2023-04-18T02:12:12.724Z,25.90
2023-04-18T02:14:40.753Z,25.20
2023-04-18T02:17:08.883Z,26.30
2023-04-18T02:19:37.579Z,25.90
2023-04-18T02:22:05.707Z,27.70
2023-04-18T02:24:33.722Z,25.40
2023-04-18T02:27:02.007Z,26.90
2023-04-18T02:29:30.747Z,27.60
2023-04-18T02:31:58.780Z,27.80
2023-04-18T02:34:26.732Z,26.50
2023-04-18T02:36:54.701Z,25.40
2023-04-18T02:39:22.621Z,27.00
2023-04-18T02:41:51.070Z,27.10
2023-04-18T02:44:19.096Z,26.30
2023-04-18T02:46:47.650Z,26.40
2023-04-18T02:49:15.554Z,26.70
2023-04-18T02:51:45.401Z,25.80
2023-04-18T02:54:13.688Z,26.60
2023-04-18T02:56:55.355Z,24.80
2023-04-18T02:59:27.299Z,24.60
2023-04-18T03:02:09.749Z,25.40
2023-04-18T03:04:39.461Z,24.50
2023-04-18T03:07:09.442Z,24.10
2023-04-18T03:09:38.468Z,24.60
2023-04-18T03:12:13.647Z,24.80
2023-04-18T03:14:44.493Z,23.90
2023-04-18T03:17:13.149Z,25.30
2023-04-18T03:19:43.379Z,24.90
2023-04-18T03:22:14.335Z,25.50
2023-04-18T03:24:48.460Z,25.20
2023-04-18T03:27:17.563Z,23.90
2023-04-18T03:29:46.007Z,25.70
2023-04-18T03:32:14.602Z,24.20
2023-04-18T03:34:42.558Z,25.10
2023-04-18T03:37:11.461Z,25.40
2023-04-18T03:39:44.082Z,24.60
2023-04-18T03:42:12.286Z,24.20
2023-04-18T03:44:40.658Z,24.90
2023-04-18T03:47:08.765Z,24.30
2023-04-18T03:49:39.187Z,24.70
2023-04-18T03:52:07.105Z,24.40
2023-04-18T03:54:35.338Z,24.40
2023-04-18T03:57:05.237Z,23.60
2023-04-18T03:59:33.940Z,22.30
2023-04-18T04:02:01.975Z,22.30
2023-04-18T04:04:30.246Z,23.40
2023-04-18T04:07:00.449Z,24.60
2023-04-18T04:09:28.493Z,23.80
2023-04-18T04:11:56.441Z,24.70
2023-04-18T04:14:25.398Z,23.30
2023-04-18T04:16:54.175Z,25.70
2023-04-18T04:19:23.009Z,26.00
2023-04-18T04:22:02.374Z,23.40
2023-04-18T04:24:30.856Z,22.20
2023-04-18T04:26:59.768Z,24.00
2023-04-18T04:29:29.157Z,22.30
2023-04-18T04:31:59.692Z,22.50
2023-04-18T04:34:36.937Z,24.40
2023-04-18T04:37:06.694Z,23.40
2023-04-18T04:39:39.207Z,22.20
2023-04-18T04:45:09.493Z,23.70
2023-04-18T04:47:37.613Z,24.20
2023-04-18T04:50:07.835Z,24.20
2023-04-18T04:52:35.943Z,24.90
2023-04-18T04:55:04.652Z,25.00
2023-04-18T04:57:32.604Z,25.50
2023-04-18T05:00:01.570Z,25.30
2023-04-18T05:02:30.102Z,24.90
2023-04-18T05:04:58.117Z,23.90
2023-04-18T05:07:26.372Z,24.80
2023-04-18T05:09:54.402Z,24.90
2023-04-18T05:12:22.421Z,25.10
2023-04-18T05:14:50.371Z,24.60
2023-04-18T05:17:18.339Z,24.00
2023-04-18T05:19:46.430Z,23.90
2023-04-18T05:22:14.383Z,25.00
2023-04-18T05:24:42.280Z,23.70
2023-04-18T05:27:10.286Z,24.70
2023-04-18T05:29:38.528Z,24.80
2023-04-18T05:32:06.834Z,24.20
2023-04-18T05:34:38.878Z,24.50
2023-04-18T05:37:06.857Z,24.70
2023-04-18T05:39:34.733Z,23.90
2023-04-18T05:42:02.884Z,24.30
2023-04-18T05:44:30.836Z,23.90
2023-04-18T05:46:58.884Z,23.50
2023-04-18T05:49:26.840Z,23.50
2023-04-18T05:51:54.753Z,23.00
2023-04-18T05:54:22.685Z,23.90
2023-04-18T05:56:51.315Z,23.70
2023-04-18T05:59:20.711Z,22.50
2023-04-18T06:01:49.465Z,23.90
2023-04-18T06:04:17.700Z,23.80
2023-04-18T06:06:46.238Z,24.40
2023-04-18T06:09:14.228Z,25.10
2023-04-18T06:11:42.277Z,25.30
2023-04-18T06:14:10.535Z,26.30
2023-04-18T06:16:38.596Z,26.40
2023-04-18T06:19:06.683Z,26.20
2023-04-18T06:21:34.731Z,26.20
2023-04-18T06:24:02.755Z,25.50
2023-04-18T06:26:32.079Z,25.40
2023-04-18T06:29:00.073Z,24.90
2023-04-18T06:31:28.095Z,26.20
2023-04-18T06:33:56.153Z,25.70
2023-04-18T06:36:24.179Z,25.70
2023-04-18T06:38:52.043Z,26.00
2023-04-18T06:41:19.972Z,26.70
2023-04-18T06:44:02.049Z,26.60
2023-04-18T06:46:30.772Z,25.30
2023-04-18T06:48:59.252Z,25.60
2023-04-18T06:51:27.542Z,26.10
2023-04-18T06:53:55.700Z,26.10
2023-04-18T06:56:23.700Z,25.00
2023-04-18T06:58:52.911Z,26.30
2023-04-18T07:01:21.083Z,25.70
2023-04-18T07:03:49.286Z,26.40
2023-04-18T07:06:17.742Z,26.20
2023-04-18T07:08:45.896Z,24.70
2023-04-18T07:11:13.864Z,23.70
2023-04-18T07:13:41.817Z,24.00
2023-04-18T07:16:09.936Z,24.10
2023-04-18T07:18:38.745Z,22.80
2023-04-18T07:21:09.594Z,24.00
2023-04-18T07:23:37.922Z,24.70
2023-04-18T07:26:06.663Z,24.10
2023-04-18T07:28:34.561Z,23.00
2023-04-18T07:31:04.609Z,21.00
2023-04-18T07:33:34.047Z,21.00
2023-04-18T07:36:02.890Z,21.00
2023-04-18T07:38:30.836Z,20.90
2023-04-18T07:40:59.811Z,20.20
2023-04-18T07:43:27.842Z,18.70
2023-04-18T07:45:55.948Z,20.30
2023-04-18T07:48:25.334Z,20.30
2023-04-18T07:50:54.228Z,19.90
2023-04-18T07:53:22.146Z,18.80
2023-04-18T07:55:50.534Z,19.30
2023-04-18T07:58:18.585Z,21.00
2023-04-18T08:00:46.591Z,20.10
2023-04-18T08:03:14.816Z,20.90
2023-04-18T08:05:43.203Z,21.60
2023-04-18T08:08:12.884Z,20.70
2023-04-18T08:10:40.866Z,21.90
2023-04-18T08:13:08.856Z,21.40
2023-04-18T08:15:36.827Z,20.30
2023-04-18T08:18:04.979Z,19.90
2023-04-18T08:20:34.220Z,20.10
2023-04-18T08:23:07.908Z,20.80
2023-04-18T08:25:36.877Z,20.60
2023-04-18T08:28:05.418Z,20.20
2023-04-18T08:30:33.377Z,22.00
2023-04-18T08:33:01.858Z,20.00
2023-04-18T08:35:29.879Z,21.80
2023-04-18T08:37:57.760Z,23.60
2023-04-18T08:40:25.794Z,21.90
2023-04-18T08:42:57.032Z,22.00
2023-04-18T08:45:25.131Z,19.90
2023-04-18T08:47:53.443Z,19.80
2023-04-18T08:50:21.774Z,19.80
2023-04-18T08:52:51.238Z,20.20
2023-04-18T08:55:19.624Z,20.50
2023-04-18T08:57:48.060Z,19.70
2023-04-18T09:00:18.094Z,20.10
2023-04-18T09:02:47.111Z,22.60
2023-04-18T09:05:19.814Z,21.20
2023-04-18T09:07:49.618Z,24.10
2023-04-18T09:10:36.594Z,21.60
2023-04-18T09:13:04.661Z,19.30
2023-04-18T09:15:32.692Z,21.30
2023-04-18T09:18:03.237Z,22.00
2023-04-18T09:20:41.474Z,19.20
2023-04-18T09:23:23.425Z,21.70
2023-04-18T09:25:52.412Z,22.10
2023-04-18T09:28:31.969Z,25.50
2023-04-18T09:31:11.962Z,23.60
2023-04-18T09:33:44.806Z,20.50
2023-04-18T09:36:24.359Z,22.60
2023-04-18T09:38:56.276Z,20.10
2023-04-18T09:41:25.332Z,19.50
2023-04-18T09:44:13.184Z,20.80
2023-04-18T09:46:46.675Z,22.00
2023-04-18T09:49:16.838Z,20.60
2023-04-18T09:51:46.284Z,20.00
2023-04-18T09:54:18.474Z,20.30
2023-04-18T09:56:50.461Z,18.90
2023-04-18T09:59:44.662Z,20.50
2023-04-18T10:02:19.700Z,20.30
2023-04-18T10:04:50.015Z,18.60
2023-04-18T10:07:18.085Z,18.80
2023-04-18T10:09:46.903Z,20.20
2023-04-18T10:12:17.105Z,19.40
2023-04-18T10:14:45.923Z,19.80
2023-04-18T10:17:14.849Z,20.20
2023-04-18T10:19:44.348Z,20.40
2023-04-18T10:22:13.519Z,20.40
2023-04-18T10:24:56.328Z,20.60
2023-04-18T10:27:49.253Z,22.10
2023-04-18T10:30:18.592Z,21.40
2023-04-18T10:32:46.783Z,21.60
2023-04-18T10:35:15.012Z,20.60
2023-04-18T10:37:50.766Z,20.00
2023-04-18T10:40:33.104Z,21.80
2023-04-18T10:43:01.399Z,21.60
2023-04-18T10:45:32.548Z,21.70
2023-04-18T10:48:24.476Z,23.10
2023-04-18T10:51:15.754Z,23.60
2023-04-18T10:53:52.020Z,22.50
2023-04-18T10:56:20.665Z,24.00
2023-04-18T10:58:53.103Z,24.70
2023-04-18T11:01:33.050Z,23.40
2023-04-18T11:04:01.561Z,24.80
2023-04-18T11:06:31.391Z,24.10
2023-04-18T11:09:13.497Z,26.50
2023-04-18T11:11:42.462Z,26.80
2023-04-18T11:14:11.234Z,24.70
2023-04-18T11:16:40.612Z,23.40
2023-04-18T11:19:20.078Z,24.50
2023-04-18T11:21:48.089Z,25.00
2023-04-18T11:24:24.808Z,30.60
2023-04-18T11:26:56.213Z,30.70
2023-04-18T11:29:24.373Z,29.00
2023-04-18T11:31:58.597Z,26.10
2023-04-18T11:34:31.427Z,25.10
2023-04-18T11:36:59.969Z,28.90
2023-04-18T11:39:28.099Z,29.60
2023-04-18T11:41:57.196Z,30.90
2023-04-18T11:44:26.857Z,26.60
2023-04-18T11:46:54.932Z,28.50
2023-04-18T11:49:26.708Z,36.70
2023-04-18T11:51:55.077Z,34.90
2023-04-18T11:54:39.227Z,42.40
2023-04-18T11:57:20.112Z,44.80
2023-04-18T11:59:52.645Z,48.20
2023-04-18T12:02:22.842Z,26.40
2023-04-18T12:04:55.263Z,29.90
2023-04-18T12:07:41.214Z,29.40
2023-04-18T12:10:27.045Z,26.80
2023-04-18T12:12:58.744Z,25.10
2023-04-18T12:15:28.658Z,30.70
2023-04-18T12:18:02.036Z,34.20
2023-04-18T12:20:37.343Z,37.50
2023-04-18T12:23:06.080Z,26.20
2023-04-18T12:25:35.104Z,48.60
2023-04-18T12:28:14.871Z,28.70
2023-04-18T12:30:42.929Z,27.70
2023-04-18T12:33:11.238Z,23.50
2023-04-18T12:35:39.269Z,26.40
2023-04-18T12:38:07.147Z,26.00
2023-04-18T12:40:35.022Z,23.90
2023-04-18T12:43:03.903Z,27.70
2023-04-18T12:45:32.197Z,24.70
2023-04-18T12:48:00.243Z,24.90
2023-04-18T12:50:28.382Z,24.10
2023-04-18T12:52:59.177Z,23.10
2023-04-18T12:55:28.105Z,23.10
2023-04-18T12:57:56.660Z,23.70
2023-04-18T13:00:30.384Z,23.50
2023-04-18T13:02:59.686Z,24.70
2023-04-18T13:05:32.503Z,25.10
2023-04-18T13:10:32.928Z,27.60
2023-04-18T13:13:00.906Z,26.70
2023-04-18T13:15:28.962Z,27.90
2023-04-18T13:17:57.174Z,28.70
2023-04-18T13:20:25.221Z,29.10
2023-04-18T13:22:53.109Z,28.40
2023-04-18T13:25:21.845Z,29.90
2023-04-18T13:27:52.789Z,32.20
2023-04-18T13:30:21.221Z,31.50
2023-04-18T13:32:49.240Z,34.30
2023-04-18T13:35:17.292Z,31.20
2023-04-18T13:37:46.167Z,31.50
2023-04-18T13:40:14.181Z,33.00
2023-04-18T13:42:43.071Z,33.40
2023-04-18T13:45:11.212Z,34.00
2023-04-18T13:47:39.578Z,36.90
2023-04-18T13:50:08.222Z,33.90
2023-04-18T13:52:36.483Z,35.50
2023-04-18T13:55:04.960Z,34.60
2023-04-18T13:57:33.615Z,33.30
2023-04-18T14:00:01.755Z,30.10
2023-04-18T14:02:40.686Z,29.30
2023-04-18T14:05:09.375Z,29.60
2023-04-18T14:07:38.532Z,28.30
2023-04-18T14:10:07.008Z,29.60
2023-04-18T14:12:35.200Z,27.90
2023-04-18T14:15:16.933Z,28.10
2023-04-18T14:17:45.963Z,27.70
2023-04-18T14:20:20.677Z,27.00
2023-04-18T14:22:52.362Z,26.50
2023-04-18T14:25:21.118Z,27.20
2023-04-18T14:27:49.081Z,27.60
2023-04-18T14:30:17.252Z,27.80
2023-04-18T14:32:45.789Z,27.00
2023-04-18T14:35:13.783Z,27.00
2023-04-18T14:37:42.182Z,30.30
2023-04-18T14:40:11.386Z,28.00
2023-04-18T14:42:39.336Z,27.70
2023-04-18T14:45:08.517Z,28.60
2023-04-18T14:47:39.060Z,32.20
2023-04-18T14:50:08.299Z,33.00
2023-04-18T14:52:36.200Z,26.50
2023-04-18T14:55:05.597Z,27.60
2023-04-18T14:57:37.772Z,27.30
2023-04-18T15:00:11.042Z,26.40
2023-04-18T15:02:39.931Z,26.60
2023-04-18T15:05:09.114Z,26.70
2023-04-18T15:07:38.034Z,26.40
2023-04-18T15:10:07.027Z,26.60
2023-04-18T15:12:34.926Z,27.80
2023-04-18T15:15:02.895Z,27.40
2023-04-18T15:17:30.890Z,27.00
2023-04-18T15:19:59.641Z,26.70
2023-04-18T15:22:27.597Z,26.10
2023-04-18T15:24:55.496Z,27.00
2023-04-18T15:27:23.416Z,27.20
2023-04-18T15:29:52.069Z,26.20
2023-04-18T15:32:20.093Z,26.60
2023-04-18T15:34:48.184Z,26.10
2023-04-18T15:37:16.207Z,26.30
2023-04-18T15:39:44.221Z,25.90
2023-04-18T15:42:12.136Z,25.30
2023-04-18T15:44:40.086Z,25.30
2023-04-18T15:47:07.970Z,26.40
2023-04-18T15:49:35.903Z,26.90
2023-04-18T15:52:04.787Z,25.20
2023-04-18T15:54:33.080Z,25.00
2023-04-18T15:57:02.480Z,25.20
2023-04-18T15:59:31.195Z,26.30
2023-04-18T16:01:59.309Z,25.90
2023-04-18T16:04:27.665Z,27.50
2023-04-18T16:06:55.951Z,25.70
2023-04-18T16:09:23.986Z,25.30
2023-04-18T16:11:53.283Z,27.10
2023-04-18T16:14:21.401Z,26.40
2023-04-18T16:16:49.296Z,25.80
2023-04-18T16:19:17.677Z,23.80
2023-04-18T16:21:47.127Z,23.90
2023-04-18T16:24:15.970Z,22.50
2023-04-18T16:26:44.197Z,24.50
2023-04-18T16:29:12.267Z,23.70
2023-04-18T16:31:41.574Z,23.50
2023-04-18T16:34:09.829Z,25.40
2023-04-18T16:36:37.708Z,25.60
2023-04-18T16:39:05.715Z,25.50
2023-04-18T16:41:33.616Z,27.30
2023-04-18T16:44:01.557Z,26.70
2023-04-18T16:46:32.684Z,26.10
2023-04-18T16:49:01.626Z,26.40
2023-04-18T16:51:31.374Z,25.90
2023-04-18T16:53:59.271Z,26.00
2023-04-18T16:56:27.244Z,26.40
2023-04-18T16:58:55.486Z,28.10
2023-04-18T17:01:23.412Z,26.80
2023-04-18T17:03:51.648Z,27.30
2023-04-18T17:06:19.626Z,26.90
2023-04-18T17:08:48.956Z,26.70
2023-04-18T17:11:16.809Z,26.50
2023-04-18T17:13:44.778Z,27.10
2023-04-18T17:16:12.886Z,25.90
2023-04-18T17:18:41.811Z,26.70
2023-04-18T17:21:12.491Z,26.00
2023-04-18T17:23:42.497Z,26.30
2023-04-18T17:26:10.743Z,26.50
2023-04-18T17:28:38.985Z,27.30
2023-04-18T17:31:07.858Z,29.80
2023-04-18T17:33:36.074Z,29.90
2023-04-18T17:36:06.378Z,36.50
2023-04-18T17:38:34.340Z,39.40
2023-04-18T17:41:04.595Z,37.20
2023-04-18T17:43:32.700Z,40.10
2023-04-18T17:46:02.456Z,36.90
2023-04-18T17:48:30.430Z,32.30
2023-04-18T17:50:58.281Z,31.30
2023-04-18T17:53:26.108Z,30.60
2023-04-18T17:55:55.566Z,29.70
2023-04-18T17:58:23.709Z,31.80
2023-04-18T18:00:52.048Z,31.50
2023-04-18T18:03:20.705Z,33.70
2023-04-18T18:05:49.492Z,34.50
2023-04-18T18:08:17.628Z,34.00
2023-04-18T18:10:47.568Z,36.10
2023-04-18T18:13:15.788Z,35.60
2023-04-18T18:15:43.765Z,34.10
2023-04-18T18:18:11.805Z,31.90
2023-04-18T18:20:43.254Z,34.10
2023-04-18T18:23:11.469Z,32.00
2023-04-18T18:25:40.408Z,32.20
2023-04-18T18:28:08.738Z,30.50
2023-04-18T18:30:38.086Z,31.00
2023-04-18T18:33:06.092Z,30.90
2023-04-18T18:35:34.027Z,31.90
2023-04-18T18:38:02.166Z,31.10
2023-04-18T18:40:30.673Z,34.20
2023-04-18T18:42:59.538Z,32.30
2023-04-18T18:45:27.711Z,29.30
2023-04-18T18:47:55.943Z,31.80
2023-04-18T18:50:24.193Z,31.30
2023-04-18T18:52:52.465Z,33.50
2023-04-18T18:55:20.412Z,33.30
2023-04-18T18:57:48.693Z,35.50
2023-04-18T19:00:16.804Z,37.50
2023-04-18T19:02:45.329Z,35.50
2023-04-18T19:05:14.006Z,36.50
2023-04-18T19:07:42.408Z,37.40
2023-04-18T19:10:11.038Z,36.50
2023-04-18T19:12:38.965Z,37.90
2023-04-18T19:15:07.504Z,38.80
2023-04-18T19:17:35.833Z,38.50
2023-04-18T19:20:04.189Z,38.50
2023-04-18T19:22:32.216Z,40.30
2023-04-18T19:25:00.863Z,40.50
2023-04-18T19:27:28.982Z,40.50
2023-04-18T19:29:57.033Z,38.20
2023-04-18T19:32:25.088Z,38.80
2023-04-18T19:34:53.078Z,37.60
2023-04-18T19:37:21.111Z,38.40
2023-04-18T19:39:49.190Z,38.80
2023-04-18T19:42:17.253Z,37.40
2023-04-18T19:44:45.286Z,36.70
2023-04-18T19:47:13.284Z,37.50
2023-04-18T19:49:41.235Z,37.40
2023-04-18T19:52:09.296Z,36.50
2023-04-18T19:54:37.249Z,35.80
2023-04-18T19:57:06.412Z,35.30
2023-04-18T19:59:34.310Z,34.30
2023-04-18T20:02:05.692Z,33.20
2023-04-18T20:04:34.535Z,34.20
2023-04-18T20:07:02.893Z,33.70
2023-04-18T20:09:30.815Z,33.40
2023-04-18T20:12:00.588Z,32.90
2023-04-18T20:14:29.443Z,32.30
2023-04-18T20:16:57.529Z,30.90
2023-04-18T20:19:25.785Z,30.60
2023-04-18T20:21:53.691Z,32.50
2023-04-18T20:24:21.950Z,33.70
2023-04-18T20:26:51.360Z,34.10
2023-04-18T20:29:19.367Z,34.50
2023-04-18T20:31:47.299Z,34.10
2023-04-18T20:34:15.823Z,29.00
2023-04-18T20:36:44.805Z,28.70
2023-04-18T20:39:13.729Z,30.00
2023-04-18T20:41:48.470Z,29.60
2023-04-18T20:44:19.089Z,27.50
2023-04-18T20:46:47.128Z,28.00
2023-04-18T20:49:15.194Z,26.40
2023-04-18T20:51:43.382Z,25.60
2023-04-18T20:54:11.342Z,27.70
2023-04-18T20:56:39.439Z,27.10
2023-04-18T20:59:07.360Z,26.90
2023-04-18T21:01:37.033Z,26.00
2023-04-18T21:04:05.283Z,25.90
2023-04-18T21:06:33.305Z,26.60
2023-04-18T21:09:01.237Z,27.40
2023-04-18T21:11:29.123Z,26.20
2023-04-18T21:13:57.079Z,26.50
2023-04-18T21:16:25.526Z,26.00
2023-04-18T21:18:55.121Z,26.40
2023-04-18T21:21:23.037Z,25.50
2023-04-18T21:23:51.093Z,25.60
2023-04-18T21:26:19.092Z,26.20
2023-04-18T21:28:54.546Z,27.10
2023-04-18T21:31:22.583Z,28.00
2023-04-18T21:33:57.994Z,26.20
2023-04-18T21:36:27.866Z,26.80
2023-04-18T21:38:57.105Z,27.10
2023-04-18T21:41:25.927Z,26.90
2023-04-18T21:43:54.103Z,27.20
2023-04-18T21:46:22.301Z,27.90
2023-04-18T21:48:50.387Z,28.00
2023-04-18T21:51:18.339Z,29.80
2023-04-18T21:53:46.443Z,29.20
2023-04-18T21:56:14.574Z,28.90
2023-04-18T21:58:42.509Z,27.70
2023-04-18T22:01:10.518Z,29.00
2023-04-18T22:03:38.594Z,28.00
2023-04-18T22:06:06.705Z,27.40
2023-04-18T22:08:34.626Z,28.10
2023-04-18T22:11:04.965Z,27.60
2023-04-18T22:13:33.222Z,30.10
2023-04-18T22:16:02.982Z,29.90
2023-04-18T22:18:34.132Z,29.50
2023-04-18T22:21:03.425Z,29.70
2023-04-18T22:23:31.548Z,29.40
2023-04-18T22:25:59.532Z,29.60
2023-04-18T22:28:30.282Z,30.30
2023-04-18T22:30:58.488Z,29.90
2023-04-18T22:33:26.476Z,29.50
2023-04-18T22:35:55.723Z,29.80
2023-04-18T22:38:25.045Z,28.00
2023-04-18T22:40:53.112Z,28.00
2023-04-18T22:43:23.728Z,27.70
2023-04-18T22:45:51.753Z,27.90
2023-04-18T22:48:20.220Z,27.80
2023-04-18T22:50:49.884Z,28.40
2023-04-18T22:53:18.130Z,28.80
2023-04-18T22:55:46.491Z,28.10
2023-04-18T22:58:14.524Z,28.50
2023-04-18T23:00:42.419Z,28.00
2023-04-18T23:03:10.852Z,27.90
2023-04-18T23:05:39.002Z,26.60
2023-04-18T23:08:07.165Z,26.40
2023-04-18T23:10:35.198Z,22.50
2023-04-18T23:13:03.158Z,21.30
2023-04-18T23:15:31.119Z,20.60
2023-04-18T23:17:59.106Z,21.10
2023-04-18T23:20:27.116Z,21.30
2023-04-18T23:22:56.013Z,20.70
2023-04-18T23:25:24.104Z,20.50
2023-04-18T23:27:52.043Z,19.20
2023-04-18T23:30:20.052Z,20.60
2023-04-18T23:32:47.980Z,21.40
2023-04-18T23:35:16.007Z,20.80
2023-04-18T23:37:43.875Z,22.80
2023-04-18T23:40:11.845Z,22.50
2023-04-18T23:42:39.771Z,22.00
2023-04-18T23:45:08.157Z,20.60
2023-04-18T23:47:36.537Z,19.80
2023-04-18T23:50:05.080Z,19.50
2023-04-18T23:52:33.471Z,19.20
2023-04-18T23:55:01.684Z,19.10
2023-04-18T23:57:29.906Z,19.40
2023-04-18T23:59:57.812Z,19.70
